Time;durP1;ratioP1;P1;durP2;ratioP2;P2;SDS_P1;SDS_P2;PMS_P1;PMS_P2;Temp;Humidity;BMP_temperature;BMP_pressure;BME280_temperature;BME280_humidity;BME280_pressure;Samples;Min_cycle;Max_cycle;Signal;HPM_P1;HPM_P2
2021/11/22 00:00:14;;;;;;;;;;;19.60;35.20;;;;;;478901;247;1178;-74
2021/11/22 00:02:16;;;;;;;;;;;19.60;35.20;;;;;;478819;247;942;-74
2021/11/22 00:04:17;;;;;;;;;;;19.60;35.10;;;;;;478881;247;957;-74
2021/11/22 00:06:19;;;;;;;;;;;19.60;35.10;;;;;;478793;247;1296;-74
2021/11/22 00:08:20;;;;;;;;;;;19.70;35.00;;;;;;478839;247;2186;-74
2021/11/22 00:10:21;;;;;;;;;;;19.70;35.00;;;;;;478880;247;1126;-74
2021/11/22 00:12:23;;;;;;;;;;;19.70;35.00;;;;;;478903;247;1028;-74
2021/11/22 00:14:24;;;;;;;;;;;19.70;35.00;;;;;;478938;247;1426;-74
2021/11/22 00:16:25;;;;;;;;;;;19.70;34.90;;;;;;478865;247;1082;-74
2021/11/22 00:18:26;;;;;;;;;;;19.70;35.00;;;;;;478906;247;1163;-74
2021/11/22 00:20:28;;;;;;;;;;;19.70;35.00;;;;;;478867;247;1199;-74
2021/11/22 00:22:29;;;;;;;;;;;19.70;35.00;;;;;;478895;247;1073;-74
2021/11/22 00:24:31;;;;;;;;;;;19.70;34.90;;;;;;478997;247;975;-74
2021/11/22 00:26:32;;;;;;;;;;;19.70;35.00;;;;;;478921;247;2127;-74
2021/11/22 00:28:33;;;;;;;;;;;19.70;34.90;;;;;;478938;247;1118;-74
2021/11/22 00:30:35;;;;;;;;;;;19.70;35.00;;;;;;478860;247;1227;-74
2021/11/22 00:32:36;;;;;;;;;;;19.70;34.90;;;;;;478866;247;1183;-74
2021/11/22 00:34:42;;;;;;;;;;;19.80;34.80;;;;;;478933;247;1029;-74
2021/11/22 00:36:43;;;;;;;;;;;19.80;34.70;;;;;;478856;247;1214;-74
2021/11/22 00:38:44;;;;;;;;;;;19.80;34.70;;;;;;478940;247;952;-74
2021/11/22 00:40:45;;;;;;;;;;;19.90;34.60;;;;;;478939;247;1011;-74
2021/11/22 00:42:47;;;;;;;;;;;19.90;34.70;;;;;;478912;247;1125;-74
2021/11/22 00:44:48;;;;;;;;;;;19.90;34.70;;;;;;478919;247;1188;-74
2021/11/22 00:46:49;;;;;;;;;;;19.80;34.70;;;;;;478838;247;2171;-74
2021/11/22 00:48:51;;;;;;;;;;;19.80;34.70;;;;;;478923;247;1128;-74
2021/11/22 00:50:52;;;;;;;;;;;19.80;34.80;;;;;;478859;247;1075;-74
2021/11/22 00:52:54;;;;;;;;;;;19.80;34.90;;;;;;478952;247;1200;-74
2021/11/22 00:54:55;;;;;;;;;;;19.70;34.90;;;;;;478876;247;1061;-74
2021/11/22 00:56:56;;;;;;;;;;;19.70;35.00;;;;;;478893;247;1196;-74
2021/11/22 00:58:58;;;;;;;;;;;19.70;34.90;;;;;;478905;247;1117;-74
2021/11/22 01:00:59;;;;;;;;;;;19.80;34.90;;;;;;478913;247;1481;-74
2021/11/22 01:03:00;;;;;;;;;;;19.80;34.90;;;;;;478982;247;1098;-74
2021/11/22 01:05:02;;;;;;;;;;;19.80;34.90;;;;;;478878;247;957;-74
2021/11/22 01:07:03;;;;;;;;;;;19.70;34.90;;;;;;478940;247;2207;-74
2021/11/22 01:09:04;;;;;;;;;;;19.80;34.90;;;;;;478882;247;936;-74
2021/11/22 01:11:06;;;;;;;;;;;19.70;35.00;;;;;;478895;247;1087;-74
2021/11/22 01:13:07;;;;;;;;;;;19.80;34.90;;;;;;478897;247;1190;-74
2021/11/22 01:15:09;;;;;;;;;;;19.80;34.80;;;;;;478907;247;1327;-74
2021/11/22 01:17:10;;;;;;;;;;;19.80;34.80;;;;;;478900;247;1203;-74
2021/11/22 01:19:11;;;;;;;;;;;19.80;34.70;;;;;;478866;247;931;-74
2021/11/22 01:21:12;;;;;;;;;;;19.90;34.80;;;;;;478866;247;1116;-74
2021/11/22 01:23:14;;;;;;;;;;;19.80;34.80;;;;;;478935;247;1077;-74
2021/11/22 01:25:15;;;;;;;;;;;19.80;34.90;;;;;;478961;247;930;-74
2021/11/22 01:27:16;;;;;;;;;;;19.80;34.90;;;;;;478854;247;2190;-74
2021/11/22 01:29:18;;;;;;;;;;;19.70;34.90;;;;;;478816;247;1167;-74
2021/11/22 01:31:19;;;;;;;;;;;19.80;34.90;;;;;;478850;247;1209;-74
2021/11/22 01:33:20;;;;;;;;;;;19.70;34.90;;;;;;478910;247;955;-74
2021/11/22 01:35:22;;;;;;;;;;;19.70;34.90;;;;;;478962;247;1112;-74
2021/11/22 01:37:24;;;;;;;;;;;19.80;35.00;;;;;;478944;247;1117;-74
2021/11/22 01:39:24;;;;;;;;;;;19.80;34.90;;;;;;478891;247;1430;-74
2021/11/22 01:41:26;;;;;;;;;;;19.80;34.80;;;;;;478884;247;1208;-74
2021/11/22 01:43:27;;;;;;;;;;;20.10;34.50;;;;;;478902;247;1145;-74
2021/11/22 01:45:31;;;;;;;;;;;20.10;34.40;;;;;;478888;247;1197;-74
2021/11/22 01:47:30;;;;;;;;;;;20.00;34.50;;;;;;478779;248;2223;-74
2021/11/22 01:49:31;;;;;;;;;;;19.90;34.70;;;;;;478925;247;936;-74
2021/11/22 01:51:33;;;;;;;;;;;19.80;34.80;;;;;;478845;247;1199;-74
2021/11/22 01:53:34;;;;;;;;;;;19.80;34.80;;;;;;478872;247;950;-74
2021/11/22 01:55:36;;;;;;;;;;;19.80;34.80;;;;;;478894;247;1043;-74
2021/11/22 01:57:37;;;;;;;;;;;19.80;34.90;;;;;;478797;248;1322;-74
2021/11/22 01:59:38;;;;;;;;;;;19.80;34.90;;;;;;478885;247;1162;-74
2021/11/22 02:01:39;;;;;;;;;;;19.90;34.90;;;;;;478777;247;1279;-74
2021/11/22 02:03:41;;;;;;;;;;;19.90;34.90;;;;;;478912;247;1095;-74
2021/11/22 02:05:42;;;;;;;;;;;19.90;34.70;;;;;;478868;247;1043;-74
2021/11/22 02:07:43;;;;;;;;;;;19.90;34.70;;;;;;478842;247;2194;-74
2021/11/22 02:09:45;;;;;;;;;;;19.90;34.70;;;;;;478950;247;1105;-74
2021/11/22 02:11:46;;;;;;;;;;;19.90;34.80;;;;;;478756;247;1158;-74
2021/11/22 02:13:47;;;;;;;;;;;20.10;34.60;;;;;;478862;247;956;-74
2021/11/22 02:15:49;;;;;;;;;;;20.00;34.50;;;;;;478780;247;1157;-74
2021/11/22 02:17:50;;;;;;;;;;;20.00;34.60;;;;;;478756;247;1173;-74
2021/11/22 02:19:51;;;;;;;;;;;19.90;34.70;;;;;;478906;247;972;-74
2021/11/22 02:21:53;;;;;;;;;;;19.90;34.80;;;;;;478863;247;1205;-74
2021/11/22 02:23:54;;;;;;;;;;;19.80;34.80;;;;;;478907;247;955;-74
2021/11/22 02:25:55;;;;;;;;;;;19.80;34.90;;;;;;478899;247;948;-74
2021/11/22 02:27:57;;;;;;;;;;;19.80;34.80;;;;;;478908;247;2206;-74
2021/11/22 02:29:58;;;;;;;;;;;19.90;34.80;;;;;;478876;247;933;-74
2021/11/22 02:31:59;;;;;;;;;;;20.00;34.70;;;;;;478816;247;1198;-74
2021/11/22 02:34:01;;;;;;;;;;;19.90;34.80;;;;;;478850;247;945;-74
2021/11/22 02:36:02;;;;;;;;;;;19.90;34.80;;;;;;478911;247;932;-74
2021/11/22 02:38:04;;;;;;;;;;;19.90;34.80;;;;;;478945;247;1218;-74
2021/11/22 02:40:05;;;;;;;;;;;19.90;34.80;;;;;;479060;248;1428;-74
2021/11/22 02:42:06;;;;;;;;;;;20.00;34.70;;;;;;478929;247;946;-74
2021/11/22 02:44:07;;;;;;;;;;;19.90;34.70;;;;;;478914;247;1113;-74
2021/11/22 02:46:09;;;;;;;;;;;20.00;34.70;;;;;;478910;247;1156;-74
2021/11/22 02:48:10;;;;;;;;;;;19.90;34.70;;;;;;478905;247;2131;-74
2021/11/22 02:50:12;;;;;;;;;;;19.90;34.80;;;;;;478875;247;1219;-74
2021/11/22 02:52:13;;;;;;;;;;;19.90;34.80;;;;;;478922;247;1056;-74
2021/11/22 02:54:14;;;;;;;;;;;19.90;34.80;;;;;;478942;247;1076;-74
2021/11/22 02:56:16;;;;;;;;;;;20.00;34.80;;;;;;478888;247;1008;-74
2021/11/22 02:58:17;;;;;;;;;;;20.00;34.80;;;;;;478871;247;1181;-74
2021/11/22 03:00:19;;;;;;;;;;;19.90;34.70;;;;;;478846;247;965;-74
2021/11/22 03:02:20;;;;;;;;;;;19.90;34.80;;;;;;478900;247;1208;-74
2021/11/22 03:04:21;;;;;;;;;;;20.00;34.70;;;;;;478949;247;1080;-74
2021/11/22 03:06:23;;;;;;;;;;;20.00;34.70;;;;;;478859;247;1131;-74
2021/11/22 03:08:24;;;;;;;;;;;20.00;34.70;;;;;;478891;247;2206;-74
2021/11/22 03:10:28;;;;;;;;;;;20.00;34.60;;;;;;478815;247;1119;-74
2021/11/22 03:12:27;;;;;;;;;;;19.90;34.70;;;;;;478759;248;1271;-74
2021/11/22 03:14:29;;;;;;;;;;;19.90;34.70;;;;;;478944;247;946;-74
2021/11/22 03:16:31;;;;;;;;;;;19.90;34.60;;;;;;478849;247;1182;-74
2021/11/22 03:18:31;;;;;;;;;;;19.90;34.80;;;;;;478894;247;1458;-74
2021/11/22 03:20:33;;;;;;;;;;;19.80;34.80;;;;;;478877;247;1215;-74
2021/11/22 03:22:34;;;;;;;;;;;19.80;34.90;;;;;;478836;247;1099;-74
2021/11/22 03:24:35;;;;;;;;;;;19.80;35.00;;;;;;478936;247;931;-74
2021/11/22 03:26:37;;;;;;;;;;;19.80;35.00;;;;;;478894;247;1326;-74
2021/11/22 03:28:38;;;;;;;;;;;19.90;34.90;;;;;;478979;247;2119;-74
2021/11/22 03:30:39;;;;;;;;;;;19.80;34.80;;;;;;478910;247;1334;-74
2021/11/22 03:32:41;;;;;;;;;;;19.90;34.80;;;;;;478955;247;1221;-74
2021/11/22 03:34:42;;;;;;;;;;;19.90;34.70;;;;;;478911;247;975;-74
2021/11/22 03:36:43;;;;;;;;;;;19.90;34.80;;;;;;478911;247;1115;-74
2021/11/22 03:38:45;;;;;;;;;;;19.90;34.80;;;;;;478937;247;1121;-74
2021/11/22 03:40:47;;;;;;;;;;;19.90;34.60;;;;;;478906;247;1126;-74
2021/11/22 03:42:59;;;;;;;;;;;20.00;34.70;;;;;;478906;247;1666;-74
2021/11/22 03:44:54;;;;;;;;;;;19.90;34.70;;;;;;478582;248;1423;-74
2021/11/22 03:46:55;;;;;;;;;;;19.90;34.90;;;;;;478971;247;1228;-74
2021/11/22 03:48:57;;;;;;;;;;;19.80;34.80;;;;;;478923;248;2135;-74
2021/11/22 03:50:58;;;;;;;;;;;19.90;34.90;;;;;;478886;247;1365;-74
2021/11/22 03:52:59;;;;;;;;;;;19.90;35.00;;;;;;478814;247;1048;-74
2021/11/22 03:55:01;;;;;;;;;;;19.80;34.90;;;;;;478876;247;1041;-74
2021/11/22 03:57:02;;;;;;;;;;;19.80;35.00;;;;;;478844;247;1358;-74
2021/11/22 03:59:03;;;;;;;;;;;19.80;35.00;;;;;;478906;247;1055;-74
2021/11/22 04:01:05;;;;;;;;;;;19.80;35.00;;;;;;478889;247;1327;-74
2021/11/22 04:03:06;;;;;;;;;;;19.90;34.90;;;;;;478924;247;1155;-74
2021/11/22 04:05:07;;;;;;;;;;;19.80;34.90;;;;;;478986;247;1036;-74
2021/11/22 04:07:09;;;;;;;;;;;19.90;34.80;;;;;;478816;247;1037;-74
2021/11/22 04:09:10;;;;;;;;;;;19.90;34.90;;;;;;478862;247;2115;-74
2021/11/22 04:11:11;;;;;;;;;;;19.90;34.80;;;;;;478854;247;1156;-74
2021/11/22 04:13:13;;;;;;;;;;;20.00;34.80;;;;;;479040;247;1207;-74
2021/11/22 04:15:14;;;;;;;;;;;20.00;34.80;;;;;;478942;247;966;-74
2021/11/22 04:17:15;;;;;;;;;;;19.90;34.80;;;;;;479026;247;1131;-74
2021/11/22 04:19:17;;;;;;;;;;;19.90;34.80;;;;;;478983;247;1101;-74
2021/11/22 04:21:18;;;;;;;;;;;19.90;34.90;;;;;;478889;247;1122;-74
2021/11/22 04:23:19;;;;;;;;;;;19.90;34.90;;;;;;478920;247;934;-74
2021/11/22 04:25:21;;;;;;;;;;;19.90;34.90;;;;;;478938;247;1036;-74
2021/11/22 04:27:22;;;;;;;;;;;19.80;34.90;;;;;;478921;247;1421;-74
2021/11/22 04:29:23;;;;;;;;;;;19.80;34.90;;;;;;478879;247;2139;-74
2021/11/22 04:31:25;;;;;;;;;;;19.80;35.00;;;;;;478763;247;1351;-74
2021/11/22 04:33:26;;;;;;;;;;;19.90;35.00;;;;;;478873;247;1128;-74
2021/11/22 04:35:27;;;;;;;;;;;19.90;34.90;;;;;;478866;247;1242;-74
2021/11/22 04:37:29;;;;;;;;;;;19.90;35.00;;;;;;478790;247;1433;-74
2021/11/22 04:39:30;;;;;;;;;;;19.80;35.00;;;;;;478928;247;1062;-74
2021/11/22 04:41:31;;;;;;;;;;;19.80;35.10;;;;;;478861;247;1343;-74
2021/11/22 04:43:33;;;;;;;;;;;19.80;35.00;;;;;;478938;247;1131;-74
2021/11/22 04:45:34;;;;;;;;;;;19.80;35.00;;;;;;478825;247;1227;-74
2021/11/22 04:47:35;;;;;;;;;;;19.80;35.10;;;;;;478897;245;1120;-74
2021/11/22 04:49:37;;;;;;;;;;;19.80;35.20;;;;;;478878;247;2179;-74
2021/11/22 04:51:38;;;;;;;;;;;19.80;35.20;;;;;;478769;247;1198;-74
2021/11/22 04:53:40;;;;;;;;;;;19.90;35.10;;;;;;478867;247;942;-74
2021/11/22 04:55:41;;;;;;;;;;;19.80;35.20;;;;;;478816;247;964;-74
2021/11/22 04:57:42;;;;;;;;;;;19.80;35.20;;;;;;478852;247;1061;-74
2021/11/22 04:59:44;;;;;;;;;;;19.80;35.30;;;;;;478889;247;1038;-74
2021/11/22 05:01:45;;;;;;;;;;;19.80;35.30;;;;;;478822;247;1129;-74
2021/11/22 05:03:48;;;;;;;;;;;19.80;35.20;;;;;;478892;247;1144;-74
2021/11/22 05:05:48;;;;;;;;;;;19.80;35.30;;;;;;478674;248;1468;-74
2021/11/22 05:07:49;;;;;;;;;;;19.80;35.30;;;;;;478808;247;1092;-74
2021/11/22 05:09:50;;;;;;;;;;;19.80;35.30;;;;;;478908;247;2120;-74
2021/11/22 05:11:52;;;;;;;;;;;19.70;35.30;;;;;;478809;247;1211;-74
2021/11/22 05:13:53;;;;;;;;;;;19.80;35.40;;;;;;478880;247;980;-74
2021/11/22 05:15:55;;;;;;;;;;;19.80;35.20;;;;;;478788;247;1190;-74
2021/11/22 05:17:56;;;;;;;;;;;19.80;35.20;;;;;;478852;247;1089;-74
2021/11/22 05:19:57;;;;;;;;;;;19.80;35.20;;;;;;478895;247;1098;-74
2021/11/22 05:21:58;;;;;;;;;;;19.90;35.10;;;;;;478769;247;1276;-74
2021/11/22 05:24:00;;;;;;;;;;;19.90;35.20;;;;;;478852;247;1292;-74
2021/11/22 05:26:01;;;;;;;;;;;19.80;35.20;;;;;;478828;247;1230;-74
2021/11/22 05:28:02;;;;;;;;;;;19.90;35.20;;;;;;478896;247;1084;-74
2021/11/22 05:30:04;;;;;;;;;;;19.90;35.30;;;;;;478802;247;2186;-74
2021/11/22 05:32:05;;;;;;;;;;;19.80;35.30;;;;;;478666;247;1262;-74
2021/11/22 05:34:07;;;;;;;;;;;19.80;35.40;;;;;;478639;247;1166;-74
2021/11/22 05:36:08;;;;;;;;;;;19.80;35.40;;;;;;478591;247;1208;-74
2021/11/22 05:38:09;;;;;;;;;;;19.80;35.40;;;;;;478579;247;1073;-73
2021/11/22 05:40:11;;;;;;;;;;;19.80;35.30;;;;;;478622;247;978;-74
2021/11/22 05:42:12;;;;;;;;;;;19.80;35.30;;;;;;478699;247;1364;-74
2021/11/22 05:44:13;;;;;;;;;;;19.80;35.30;;;;;;478736;247;1070;-74
2021/11/22 05:46:15;;;;;;;;;;;19.90;35.30;;;;;;478634;247;1180;-74
2021/11/22 05:48:17;;;;;;;;;;;19.90;35.20;;;;;;478640;247;1352;-74
2021/11/22 05:50:18;;;;;;;;;;;19.90;35.30;;;;;;478551;248;2127;-74
2021/11/22 05:52:19;;;;;;;;;;;19.80;35.30;;;;;;478606;248;1420;-74
2021/11/22 05:54:22;;;;;;;;;;;19.90;35.30;;;;;;478597;247;1133;-74
2021/11/22 05:56:21;;;;;;;;;;;19.80;35.30;;;;;;478502;248;1421;-74
2021/11/22 05:58:23;;;;;;;;;;;19.80;35.40;;;;;;478696;247;973;-74
2021/11/22 06:00:24;;;;;;;;;;;19.80;35.30;;;;;;478680;247;1252;-74
2021/11/22 06:02:25;;;;;;;;;;;19.80;35.40;;;;;;478547;247;1115;-74
2021/11/22 06:04:27;;;;;;;;;;;19.80;35.50;;;;;;478596;247;1171;-74
2021/11/22 06:06:28;;;;;;;;;;;19.80;35.50;;;;;;478598;247;1294;-74
2021/11/22 06:08:29;;;;;;;;;;;19.90;35.30;;;;;;478472;247;1175;-74
2021/11/22 06:10:31;;;;;;;;;;;19.90;35.20;;;;;;478525;247;2525;-74
2021/11/22 06:12:32;;;;;;;;;;;19.90;35.30;;;;;;478664;247;1127;-74
2021/11/22 06:14:33;;;;;;;;;;;19.80;35.40;;;;;;478534;247;1257;-74
2021/11/22 06:16:35;;;;;;;;;;;19.80;35.50;;;;;;478532;247;1260;-74
2021/11/22 06:18:36;;;;;;;;;;;19.90;35.50;;;;;;478563;247;1137;-74
2021/11/22 06:20:37;;;;;;;;;;;19.90;35.40;;;;;;478506;247;954;-74
2021/11/22 06:22:39;;;;;;;;;;;19.80;35.40;;;;;;478539;247;1162;-74
2021/11/22 06:24:40;;;;;;;;;;;19.70;35.60;;;;;;478598;247;1045;-74
2021/11/22 06:26:41;;;;;;;;;;;19.80;35.60;;;;;;478579;247;962;-74
2021/11/22 06:28:43;;;;;;;;;;;19.80;35.50;;;;;;478550;247;2199;-74
2021/11/22 06:30:44;;;;;;;;;;;19.80;35.60;;;;;;478555;247;975;-74
2021/11/22 06:32:45;;;;;;;;;;;19.80;35.60;;;;;;478343;247;976;-73
2021/11/22 06:34:47;;;;;;;;;;;19.90;35.50;;;;;;478357;245;2007;-74
2021/11/22 06:36:48;;;;;;;;;;;19.90;35.40;;;;;;478488;247;1042;-74
2021/11/22 06:38:49;;;;;;;;;;;19.90;35.50;;;;;;478508;247;1127;-73
2021/11/22 06:40:51;;;;;;;;;;;19.90;35.50;;;;;;478557;247;1146;-73
2021/11/22 06:42:52;;;;;;;;;;;19.80;35.60;;;;;;478541;245;1362;-74
2021/11/22 06:44:53;;;;;;;;;;;19.80;35.60;;;;;;478358;247;1173;-74
2021/11/22 06:46:55;;;;;;;;;;;19.90;35.60;;;;;;478375;247;1225;-74
2021/11/22 06:48:56;;;;;;;;;;;19.80;35.50;;;;;;478431;247;2198;-74
2021/11/22 06:50:57;;;;;;;;;;;19.90;35.50;;;;;;478382;247;1153;-74
2021/11/22 06:52:59;;;;;;;;;;;19.90;35.50;;;;;;478495;247;1100;-74
2021/11/22 06:55:00;;;;;;;;;;;19.90;35.60;;;;;;478381;247;1119;-74
2021/11/22 06:57:02;;;;;;;;;;;19.80;35.60;;;;;;478328;247;1127;-74
2021/11/22 06:59:03;;;;;;;;;;;19.80;35.60;;;;;;478340;247;1115;-74
2021/11/22 07:01:04;;;;;;;;;;;19.80;35.60;;;;;;478255;247;1188;-74
2021/11/22 07:03:06;;;;;;;;;;;19.80;35.60;;;;;;478306;247;1128;-74
2021/11/22 07:05:07;;;;;;;;;;;19.80;35.60;;;;;;478403;247;1218;-74
2021/11/22 07:07:08;;;;;;;;;;;19.80;35.60;;;;;;478188;247;1151;-74
2021/11/22 07:09:10;;;;;;;;;;;19.90;35.60;;;;;;478410;247;2190;-74
2021/11/22 07:11:11;;;;;;;;;;;19.90;35.40;;;;;;478237;247;1103;-74
2021/11/22 07:13:12;;;;;;;;;;;19.80;35.50;;;;;;478456;247;1113;-73
2021/11/22 07:15:18;;;;;;;;;;;19.80;35.50;;;;;;478237;247;1032;-74
2021/11/22 07:17:16;;;;;;;;;;;19.80;35.60;;;;;;478018;248;1637;-74
2021/11/22 07:19:17;;;;;;;;;;;19.80;35.50;;;;;;478195;247;1187;-74
2021/11/22 07:21:19;;;;;;;;;;;19.80;35.50;;;;;;478227;247;1089;-74
2021/11/22 07:23:22;;;;;;;;;;;19.80;35.50;;;;;;478224;247;1019;-74
2021/11/22 07:25:23;;;;;;;;;;;19.90;35.50;;;;;;478340;247;1353;-73
2021/11/22 07:27:26;;;;;;;;;;;19.80;35.40;;;;;;478185;247;1086;-74
2021/11/22 07:29:26;;;;;;;;;;;19.90;35.50;;;;;;478315;247;2123;-74
2021/11/22 07:31:27;;;;;;;;;;;19.90;35.50;;;;;;478120;247;1219;-74
2021/11/22 07:33:29;;;;;;;;;;;19.90;35.50;;;;;;478098;247;1083;-74
2021/11/22 07:35:30;;;;;;;;;;;19.80;35.50;;;;;;478228;247;1330;-74
2021/11/22 07:37:32;;;;;;;;;;;19.80;35.50;;;;;;478008;247;1135;-73
2021/11/22 07:39:33;;;;;;;;;;;19.80;35.50;;;;;;478067;247;1008;-74
2021/11/22 07:41:34;;;;;;;;;;;19.80;35.50;;;;;;478063;247;1225;-74
2021/11/22 07:43:35;;;;;;;;;;;19.80;35.50;;;;;;478380;247;1047;-74
2021/11/22 07:45:37;;;;;;;;;;;19.80;35.50;;;;;;478203;247;1091;-74
2021/11/22 07:47:38;;;;;;;;;;;19.90;35.50;;;;;;478216;247;1369;-74
2021/11/22 07:49:39;;;;;;;;;;;19.90;35.50;;;;;;478170;247;2198;-74
2021/11/22 07:51:41;;;;;;;;;;;19.90;35.50;;;;;;477910;247;1230;-74
2021/11/22 07:53:42;;;;;;;;;;;19.90;35.50;;;;;;478117;247;1070;-74
2021/11/22 07:55:45;;;;;;;;;;;19.90;35.40;;;;;;478113;247;1000;-74
2021/11/22 07:57:45;;;;;;;;;;;19.90;35.50;;;;;;478169;247;1334;-74
2021/11/22 07:59:46;;;;;;;;;;;19.90;35.50;;;;;;478278;245;1208;-74
2021/11/22 08:01:47;;;;;;;;;;;19.90;35.60;;;;;;478163;247;1179;-73
2021/11/22 08:03:49;;;;;;;;;;;19.90;35.60;;;;;;478211;247;1387;-73
2021/11/22 08:05:54;;;;;;;;;;;20.00;35.50;;;;;;478268;247;1202;-74
2021/11/22 08:07:54;;;;;;;;;;;20.00;35.40;;;;;;478110;248;1415;-74
2021/11/22 08:09:57;;;;;;;;;;;19.90;35.40;;;;;;478082;248;2170;-74
2021/11/22 08:12:25;;;;;;;;;;;20.00;35.40;;;;;;478295;247;1403;-74
2021/11/22 08:14:15;;;;;;;;;;;20.00;35.40;;;;;;477540;248;1337;-74
2021/11/22 08:16:17;;;;;;;;;;;20.00;35.50;;;;;;477864;247;1134;-74
2021/11/22 08:18:18;;;;;;;;;;;20.00;35.40;;;;;;478262;247;1144;-74
2021/11/22 08:20:19;;;;;;;;;;;20.00;35.50;;;;;;478064;247;1301;-74
2021/11/22 08:22:22;;;;;;;;;;;20.00;35.50;;;;;;478223;247;1140;-74
2021/11/22 08:24:26;;;;;;;;;;;20.00;35.50;;;;;;478159;247;1710;-74
2021/11/22 08:26:24;;;;;;;;;;;19.90;35.50;;;;;;477939;248;1451;-74
2021/11/22 08:28:25;;;;;;;;;;;19.90;35.50;;;;;;478068;247;1148;-73
2021/11/22 08:30:27;;;;;;;;;;;19.90;35.60;;;;;;477842;247;2186;-74
2021/11/22 08:32:28;;;;;;;;;;;19.90;35.70;;;;;;477986;247;1118;-74
2021/11/22 08:34:29;;;;;;;;;;;19.80;35.70;;;;;;477846;247;1006;-74
2021/11/22 08:36:31;;;;;;;;;;;20.00;35.60;;;;;;477934;247;1221;-74
2021/11/22 08:38:32;;;;;;;;;;;20.20;35.40;;;;;;478051;247;978;-74
2021/11/22 08:40:34;;;;;;;;;;;20.50;35.00;;;;;;477987;247;1244;-74
2021/11/22 08:42:35;;;;;;;;;;;20.80;34.50;;;;;;478082;248;1981;-74
2021/11/22 08:44:36;;;;;;;;;;;21.30;33.90;;;;;;477976;247;1098;-74
2021/11/22 08:46:38;;;;;;;;;;;21.70;33.10;;;;;;477892;247;1147;-74
2021/11/22 08:48:39;;;;;;;;;;;22.10;32.60;;;;;;478201;247;1081;-74
2021/11/22 08:50:40;;;;;;;;;;;22.40;32.00;;;;;;478051;247;2174;-74
2021/11/22 08:52:42;;;;;;;;;;;22.50;32.00;;;;;;478001;247;1080;-74
2021/11/22 08:54:43;;;;;;;;;;;22.30;32.20;;;;;;478027;247;1032;-74
2021/11/22 08:56:44;;;;;;;;;;;22.60;31.70;;;;;;478012;247;1092;-74
2021/11/22 08:58:46;;;;;;;;;;;22.60;31.80;;;;;;478019;247;1018;-74
2021/11/22 09:00:48;;;;;;;;;;;22.80;31.50;;;;;;477923;247;1128;-74
2021/11/22 09:02:49;;;;;;;;;;;23.00;31.20;;;;;;478059;247;1345;-74
2021/11/22 09:04:50;;;;;;;;;;;23.10;31.20;;;;;;478028;247;1053;-74
2021/11/22 09:06:52;;;;;;;;;;;23.30;30.80;;;;;;478134;247;1264;-74
2021/11/22 09:08:53;;;;;;;;;;;23.30;30.90;;;;;;477978;247;1217;-74
2021/11/22 09:10:54;;;;;;;;;;;23.50;30.60;;;;;;477977;247;2179;-74
2021/11/22 09:12:56;;;;;;;;;;;23.40;30.60;;;;;;478100;247;1180;-74
2021/11/22 09:14:58;;;;;;;;;;;23.50;30.60;;;;;;478044;247;1034;-74
2021/11/22 09:16:58;;;;;;;;;;;23.30;30.70;;;;;;478029;248;1426;-74
2021/11/22 09:19:00;;;;;;;;;;;23.60;30.60;;;;;;477862;247;1024;-74
2021/11/22 09:21:01;;;;;;;;;;;23.50;30.60;;;;;;477921;247;1264;-74
2021/11/22 09:23:04;;;;;;;;;;;23.50;30.70;;;;;;477917;247;1084;-74
2021/11/22 09:25:04;;;;;;;;;;;23.40;30.60;;;;;;477887;248;1300;-74
2021/11/22 09:27:05;;;;;;;;;;;23.50;30.60;;;;;;477990;247;1058;-74
2021/11/22 09:29:06;;;;;;;;;;;23.50;30.50;;;;;;478038;247;1038;-74
2021/11/22 09:31:08;;;;;;;;;;;23.50;30.70;;;;;;477961;247;2191;-74
2021/11/22 09:33:10;;;;;;;;;;;23.40;31.00;;;;;;478179;247;1212;-74
2021/11/22 09:35:11;;;;;;;;;;;23.30;30.90;;;;;;478058;248;1498;-74
2021/11/22 09:37:12;;;;;;;;;;;23.60;30.80;;;;;;478073;247;1176;-74
2021/11/22 09:39:13;;;;;;;;;;;23.30;30.90;;;;;;478234;247;1129;-74
2021/11/22 09:41:14;;;;;;;;;;;23.70;30.80;;;;;;478033;247;1207;-74
2021/11/22 09:43:16;;;;;;;;;;;23.50;30.60;;;;;;477923;247;1413;-74
2021/11/22 09:45:19;;;;;;;;;;;23.80;30.60;;;;;;477863;248;1005;-74
2021/11/22 09:47:18;;;;;;;;;;;23.70;30.60;;;;;;477807;248;1496;-74
2021/11/22 09:49:20;;;;;;;;;;;23.80;30.60;;;;;;477996;247;1106;-74
2021/11/22 09:51:21;;;;;;;;;;;23.80;30.50;;;;;;477920;247;2187;-74
2021/11/22 09:53:22;;;;;;;;;;;23.90;30.40;;;;;;477903;247;1069;-74
2021/11/22 09:55:24;;;;;;;;;;;23.90;30.30;;;;;;477868;247;1067;-74
2021/11/22 09:57:25;;;;;;;;;;;24.00;30.30;;;;;;477904;247;1082;-74
2021/11/22 09:59:26;;;;;;;;;;;24.00;30.20;;;;;;477945;247;1088;-74
2021/11/22 10:01:28;;;;;;;;;;;24.10;30.30;;;;;;477975;244;1193;-74
2021/11/22 10:03:29;;;;;;;;;;;24.20;30.10;;;;;;478014;247;1184;-74
2021/11/22 10:05:31;;;;;;;;;;;24.10;30.10;;;;;;477961;247;1023;-74
2021/11/22 10:07:32;;;;;;;;;;;24.20;30.00;;;;;;477886;247;1366;-74
2021/11/22 10:09:33;;;;;;;;;;;24.00;30.10;;;;;;477901;247;1357;-74
2021/11/22 10:11:35;;;;;;;;;;;24.10;30.10;;;;;;477818;247;2190;-74
2021/11/22 10:13:36;;;;;;;;;;;24.10;30.10;;;;;;477964;247;1390;-74
2021/11/22 10:15:37;;;;;;;;;;;24.10;30.10;;;;;;478078;247;1000;-74
2021/11/22 10:17:39;;;;;;;;;;;24.20;30.00;;;;;;478101;247;1149;-75
2021/11/22 10:19:40;;;;;;;;;;;24.40;30.00;;;;;;478016;247;1040;-74
2021/11/22 10:21:41;;;;;;;;;;;24.30;30.00;;;;;;477965;247;1047;-74
2021/11/22 10:23:43;;;;;;;;;;;24.40;29.90;;;;;;477844;247;1141;-74
2021/11/22 10:25:44;;;;;;;;;;;24.40;29.90;;;;;;477784;247;1079;-74
2021/11/22 10:27:45;;;;;;;;;;;24.40;29.90;;;;;;477956;247;989;-74
2021/11/22 10:29:47;;;;;;;;;;;24.40;29.90;;;;;;478033;247;962;-74
2021/11/22 10:31:48;;;;;;;;;;;24.50;29.80;;;;;;478114;247;2178;-74
2021/11/22 10:33:49;;;;;;;;;;;24.50;29.80;;;;;;478206;247;958;-74
2021/11/22 10:35:52;;;;;;;;;;;24.60;29.70;;;;;;478310;247;984;-74
2021/11/22 10:37:52;;;;;;;;;;;24.50;29.80;;;;;;478136;248;2099;-60
2021/11/22 10:39:53;;;;;;;;;;;24.60;29.70;;;;;;478111;247;1159;-58
2021/11/22 10:41:55;;;;;;;;;;;24.80;29.40;;;;;;478112;247;1273;-61
2021/11/22 10:43:56;;;;;;;;;;;24.70;29.50;;;;;;478153;247;1194;-60
2021/11/22 10:45:57;;;;;;;;;;;24.70;29.50;;;;;;478064;247;1234;-60
2021/11/22 10:48:01;;;;;;;;;;;24.80;29.40;;;;;;478072;247;1056;-60
2021/11/22 10:50:04;;;;;;;;;;;24.80;29.50;;;;;;478001;248;1469;-59
2021/11/22 10:52:01;;;;;;;;;;;24.80;29.40;;;;;;477708;248;2194;-61
2021/11/22 10:54:03;;;;;;;;;;;24.80;29.50;;;;;;477555;247;1332;-58
2021/11/22 10:56:04;;;;;;;;;;;24.80;29.50;;;;;;478156;247;1113;-60
2021/11/22 10:58:05;;;;;;;;;;;24.90;29.40;;;;;;478412;247;1074;-60
2021/11/22 11:00:07;;;;;;;;;;;24.80;29.40;;;;;;477912;247;1044;-61
2021/11/22 11:02:08;;;;;;;;;;;24.80;29.50;;;;;;478116;247;1126;-61
2021/11/22 11:04:09;;;;;;;;;;;24.70;29.60;;;;;;478346;247;1101;-60
2021/11/22 11:06:11;;;;;;;;;;;24.60;29.70;;;;;;478356;247;1222;-60
2021/11/22 11:08:12;;;;;;;;;;;24.50;29.80;;;;;;478200;247;1069;-60
2021/11/22 11:10:13;;;;;;;;;;;24.30;30.00;;;;;;478063;247;1003;-60
2021/11/22 11:12:15;;;;;;;;;;;24.00;30.40;;;;;;477906;247;2147;-61
2021/11/22 11:14:16;;;;;;;;;;;23.60;31.10;;;;;;478029;247;1379;-60
2021/11/22 11:16:17;;;;;;;;;;;23.20;31.60;;;;;;477984;247;1185;-60
2021/11/22 11:18:19;;;;;;;;;;;22.90;31.90;;;;;;478265;247;1246;-61
2021/11/22 11:20:20;;;;;;;;;;;22.70;32.10;;;;;;478132;247;1127;-63
2021/11/22 11:22:21;;;;;;;;;;;22.70;32.20;;;;;;478011;247;1249;-60
2021/11/22 11:24:23;;;;;;;;;;;22.50;32.50;;;;;;477912;247;1322;-60
2021/11/22 11:26:24;;;;;;;;;;;22.40;32.60;;;;;;477944;247;1231;-60
2021/11/22 11:28:26;;;;;;;;;;;22.30;32.70;;;;;;478188;247;1212;-62
2021/11/22 11:30:27;;;;;;;;;;;22.20;32.90;;;;;;478163;247;1110;-62
2021/11/22 11:32:29;;;;;;;;;;;22.10;33.10;;;;;;478136;247;2119;-60
2021/11/22 11:34:30;;;;;;;;;;;22.00;33.20;;;;;;477922;247;1053;-60
2021/11/22 11:36:31;;;;;;;;;;;22.00;33.20;;;;;;478041;247;1133;-62
2021/11/22 11:38:33;;;;;;;;;;;21.90;33.20;;;;;;478454;247;1184;-77
2021/11/22 11:40:34;;;;;;;;;;;21.50;33.60;;;;;;478304;247;1200;-77
2021/11/22 11:42:35;;;;;;;;;;;20.90;34.60;;;;;;478136;247;1331;-76
2021/11/22 11:44:37;;;;;;;;;;;20.50;35.40;;;;;;477978;247;988;-77
2021/11/22 11:46:38;;;;;;;;;;;20.30;35.80;;;;;;478085;247;1130;-77
2021/11/22 11:48:39;;;;;;;;;;;20.10;36.00;;;;;;478190;247;1216;-76
2021/11/22 11:50:44;;;;;;;;;;;20.00;36.20;;;;;;478193;248;2191;-76
2021/11/22 11:52:43;;;;;;;;;;;20.00;36.30;;;;;;478165;247;1419;-76
2021/11/22 11:54:44;;;;;;;;;;;19.90;36.30;;;;;;478296;247;947;-76
2021/11/22 11:56:47;;;;;;;;;;;19.90;36.40;;;;;;478112;247;1279;-76